sensor_id;sensor_type;location;lat;lon;timestamp;P1;durP1;ratioP1;P2;durP2;ratioP2
20709;SDS011;10516;51.518;9.864;2022-12-18T00:01:18;28.48;;;13.32;;
20709;SDS011;10516;51.518;9.864;2022-12-18T00:03:49;22.05;;;12.27;;
20709;SDS011;10516;51.518;9.864;2022-12-18T00:06:16;30.30;;;12.93;;
20709;SDS011;10516;51.518;9.864;2022-12-18T00:08:43;27.42;;;12.43;;
20709;SDS011;10516;51.518;9.864;2022-12-18T00:11:16;24.17;;;12.98;;
20709;SDS011;10516;51.518;9.864;2022-12-18T00:13:44;19.58;;;11.93;;
20709;SDS011;10516;51.518;9.864;2022-12-18T00:16:11;23.60;;;13.23;;
20709;SDS011;10516;51.518;9.864;2022-12-18T00:18:37;29.38;;;13.38;;
20709;SDS011;10516;51.518;9.864;2022-12-18T00:21:04;23.70;;;13.27;;
20709;SDS011;10516;51.518;9.864;2022-12-18T00:23:32;25.98;;;13.80;;
20709;SDS011;10516;51.518;9.864;2022-12-18T00:26:02;25.30;;;13.70;;
20709;SDS011;10516;51.518;9.864;2022-12-18T00:28:31;30.50;;;16.05;;
20709;SDS011;10516;51.518;9.864;2022-12-18T00:31:04;28.23;;;14.85;;
20709;SDS011;10516;51.518;9.864;2022-12-18T00:33:35;28.35;;;15.68;;
20709;SDS011;10516;51.518;9.864;2022-12-18T00:36:12;32.70;;;14.80;;
20709;SDS011;10516;51.518;9.864;2022-12-18T00:38:48;23.27;;;12.77;;
20709;SDS011;10516;51.518;9.864;2022-12-18T00:41:14;20.23;;;11.35;;
20709;SDS011;10516;51.518;9.864;2022-12-18T00:44:01;27.05;;;13.07;;
20709;SDS011;10516;51.518;9.864;2022-12-18T00:46:27;27.92;;;13.68;;
20709;SDS011;10516;51.518;9.864;2022-12-18T00:48:53;24.67;;;11.60;;
20709;SDS011;10516;51.518;9.864;2022-12-18T00:51:18;26.33;;;12.85;;
20709;SDS011;10516;51.518;9.864;2022-12-18T00:53:43;30.65;;;13.07;;
20709;SDS011;10516;51.518;9.864;2022-12-18T00:56:09;28.55;;;12.82;;
20709;SDS011;10516;51.518;9.864;2022-12-18T00:58:35;24.85;;;12.23;;
20709;SDS011;10516;51.518;9.864;2022-12-18T01:01:01;26.55;;;12.73;;
20709;SDS011;10516;51.518;9.864;2022-12-18T01:03:28;25.08;;;13.95;;
20709;SDS011;10516;51.518;9.864;2022-12-18T01:05:53;26.30;;;12.55;;
20709;SDS011;10516;51.518;9.864;2022-12-18T01:08:19;22.67;;;12.77;;
20709;SDS011;10516;51.518;9.864;2022-12-18T01:10:44;25.02;;;13.55;;
20709;SDS011;10516;51.518;9.864;2022-12-18T01:13:09;25.65;;;14.30;;
20709;SDS011;10516;51.518;9.864;2022-12-18T01:15:35;26.45;;;13.95;;
20709;SDS011;10516;51.518;9.864;2022-12-18T01:18:00;26.95;;;13.63;;
20709;SDS011;10516;51.518;9.864;2022-12-18T01:20:26;27.10;;;12.38;;
20709;SDS011;10516;51.518;9.864;2022-12-18T01:22:51;24.75;;;13.55;;
20709;SDS011;10516;51.518;9.864;2022-12-18T01:25:16;27.92;;;13.27;;
20709;SDS011;10516;51.518;9.864;2022-12-18T01:27:42;22.20;;;12.85;;
20709;SDS011;10516;51.518;9.864;2022-12-18T01:30:07;28.05;;;13.48;;
20709;SDS011;10516;51.518;9.864;2022-12-18T01:32:34;30.35;;;13.80;;
20709;SDS011;10516;51.518;9.864;2022-12-18T01:34:59;26.50;;;14.93;;
20709;SDS011;10516;51.518;9.864;2022-12-18T01:37:24;24.38;;;12.73;;
20709;SDS011;10516;51.518;9.864;2022-12-18T01:39:52;29.25;;;13.13;;
20709;SDS011;10516;51.518;9.864;2022-12-18T01:42:19;31.65;;;14.40;;
20709;SDS011;10516;51.518;9.864;2022-12-18T01:50:18;27.50;;;13.88;;
20709;SDS011;10516;51.518;9.864;2022-12-18T01:53:28;21.25;;;11.30;;
20709;SDS011;10516;51.518;9.864;2022-12-18T01:55:37;23.05;;;12.00;;
20709;SDS011;10516;51.518;9.864;2022-12-18T01:58:07;27.40;;;13.93;;
20709;SDS011;10516;51.518;9.864;2022-12-18T02:00:32;24.85;;;13.32;;
20709;SDS011;10516;51.518;9.864;2022-12-18T02:02:58;21.95;;;10.98;;
20709;SDS011;10516;51.518;9.864;2022-12-18T02:05:27;26.30;;;12.57;;
20709;SDS011;10516;51.518;9.864;2022-12-18T02:27:38;31.70;;;14.57;;
20709;SDS011;10516;51.518;9.864;2022-12-18T02:30:06;25.80;;;13.23;;
20709;SDS011;10516;51.518;9.864;2022-12-18T02:32:34;25.00;;;13.40;;
20709;SDS011;10516;51.518;9.864;2022-12-18T02:35:04;27.05;;;13.50;;
20709;SDS011;10516;51.518;9.864;2022-12-18T02:37:33;25.77;;;12.48;;
20709;SDS011;10516;51.518;9.864;2022-12-18T02:40:00;26.30;;;12.75;;
20709;SDS011;10516;51.518;9.864;2022-12-18T02:42:28;25.17;;;12.55;;
20709;SDS011;10516;51.518;9.864;2022-12-18T02:44:54;27.83;;;12.05;;
20709;SDS011;10516;51.518;9.864;2022-12-18T02:47:20;29.17;;;13.32;;
20709;SDS011;10516;51.518;9.864;2022-12-18T03:01:25;34.08;;;15.50;;
20709;SDS011;10516;51.518;9.864;2022-12-18T03:04:36;30.27;;;13.98;;
20709;SDS011;10516;51.518;9.864;2022-12-18T03:06:58;27.45;;;13.63;;
20709;SDS011;10516;51.518;9.864;2022-12-18T03:09:34;27.33;;;13.70;;
20709;SDS011;10516;51.518;9.864;2022-12-18T03:12:06;30.40;;;14.82;;
20709;SDS011;10516;51.518;9.864;2022-12-18T03:15:00;21.73;;;12.63;;
20709;SDS011;10516;51.518;9.864;2022-12-18T03:17:28;29.52;;;13.45;;
20709;SDS011;10516;51.518;9.864;2022-12-18T03:19:56;30.90;;;13.82;;
20709;SDS011;10516;51.518;9.864;2022-12-18T03:22:27;26.08;;;12.65;;
20709;SDS011;10516;51.518;9.864;2022-12-18T03:24:57;23.70;;;12.25;;
20709;SDS011;10516;51.518;9.864;2022-12-18T03:27:24;23.10;;;13.68;;
20709;SDS011;10516;51.518;9.864;2022-12-18T03:30:12;28.98;;;12.57;;
20709;SDS011;10516;51.518;9.864;2022-12-18T03:32:42;27.40;;;13.27;;
20709;SDS011;10516;51.518;9.864;2022-12-18T03:35:10;24.23;;;13.25;;
20709;SDS011;10516;51.518;9.864;2022-12-18T03:37:38;21.23;;;12.02;;
20709;SDS011;10516;51.518;9.864;2022-12-18T03:40:03;22.60;;;12.07;;
20709;SDS011;10516;51.518;9.864;2022-12-18T03:42:32;26.50;;;12.63;;
20709;SDS011;10516;51.518;9.864;2022-12-18T03:45:27;26.02;;;11.60;;
20709;SDS011;10516;51.518;9.864;2022-12-18T03:48:01;23.02;;;12.32;;
20709;SDS011;10516;51.518;9.864;2022-12-18T03:50:49;28.67;;;12.80;;
20709;SDS011;10516;51.518;9.864;2022-12-18T03:53:23;25.33;;;12.10;;
20709;SDS011;10516;51.518;9.864;2022-12-18T03:56:04;26.67;;;11.93;;
20709;SDS011;10516;51.518;9.864;2022-12-18T03:58:31;28.35;;;12.50;;
20709;SDS011;10516;51.518;9.864;2022-12-18T04:01:00;21.80;;;12.52;;
20709;SDS011;10516;51.518;9.864;2022-12-18T04:03:28;30.98;;;13.32;;
20709;SDS011;10516;51.518;9.864;2022-12-18T04:05:56;21.75;;;11.85;;
20709;SDS011;10516;51.518;9.864;2022-12-18T04:08:24;24.05;;;12.25;;
20709;SDS011;10516;51.518;9.864;2022-12-18T04:10:50;22.42;;;11.27;;
20709;SDS011;10516;51.518;9.864;2022-12-18T04:13:23;25.67;;;11.75;;
20709;SDS011;10516;51.518;9.864;2022-12-18T04:15:52;24.77;;;12.13;;
20709;SDS011;10516;51.518;9.864;2022-12-18T04:18:17;26.85;;;11.98;;
20709;SDS011;10516;51.518;9.864;2022-12-18T04:20:43;22.65;;;11.38;;
20709;SDS011;10516;51.518;9.864;2022-12-18T04:23:08;26.40;;;12.95;;
20709;SDS011;10516;51.518;9.864;2022-12-18T04:25:33;26.27;;;12.45;;
20709;SDS011;10516;51.518;9.864;2022-12-18T04:27:59;22.15;;;11.90;;
20709;SDS011;10516;51.518;9.864;2022-12-18T04:30:24;25.13;;;12.27;;
20709;SDS011;10516;51.518;9.864;2022-12-18T04:32:49;26.45;;;13.20;;
20709;SDS011;10516;51.518;9.864;2022-12-18T04:35:15;30.08;;;12.50;;
20709;SDS011;10516;51.518;9.864;2022-12-18T04:37:40;27.65;;;12.70;;
20709;SDS011;10516;51.518;9.864;2022-12-18T04:40:05;29.08;;;12.30;;
20709;SDS011;10516;51.518;9.864;2022-12-18T04:42:31;27.17;;;11.48;;
20709;SDS011;10516;51.518;9.864;2022-12-18T04:44:57;23.13;;;12.00;;
20709;SDS011;10516;51.518;9.864;2022-12-18T04:47:22;26.38;;;12.20;;
20709;SDS011;10516;51.518;9.864;2022-12-18T04:49:47;26.92;;;11.73;;
20709;SDS011;10516;51.518;9.864;2022-12-18T04:52:13;24.05;;;13.13;;
20709;SDS011;10516;51.518;9.864;2022-12-18T04:54:38;28.40;;;12.82;;
20709;SDS011;10516;51.518;9.864;2022-12-18T04:57:03;25.55;;;13.32;;
20709;SDS011;10516;51.518;9.864;2022-12-18T04:59:29;28.42;;;13.65;;
20709;SDS011;10516;51.518;9.864;2022-12-18T05:01:54;25.30;;;13.38;;
20709;SDS011;10516;51.518;9.864;2022-12-18T05:04:20;27.45;;;13.68;;
20709;SDS011;10516;51.518;9.864;2022-12-18T05:06:45;28.48;;;14.73;;
20709;SDS011;10516;51.518;9.864;2022-12-18T05:09:10;29.27;;;12.98;;
20709;SDS011;10516;51.518;9.864;2022-12-18T05:11:36;24.80;;;11.68;;
20709;SDS011;10516;51.518;9.864;2022-12-18T05:14:01;24.85;;;13.15;;
20709;SDS011;10516;51.518;9.864;2022-12-18T05:16:27;28.17;;;13.15;;
20709;SDS011;10516;51.518;9.864;2022-12-18T05:18:52;25.13;;;13.90;;
20709;SDS011;10516;51.518;9.864;2022-12-18T05:21:18;32.95;;;15.27;;
20709;SDS011;10516;51.518;9.864;2022-12-18T05:23:43;28.52;;;12.88;;
20709;SDS011;10516;51.518;9.864;2022-12-18T05:26:08;30.35;;;13.40;;
20709;SDS011;10516;51.518;9.864;2022-12-18T05:28:38;29.10;;;13.10;;
20709;SDS011;10516;51.518;9.864;2022-12-18T05:31:04;23.80;;;11.13;;
20709;SDS011;10516;51.518;9.864;2022-12-18T05:33:31;24.25;;;14.10;;
20709;SDS011;10516;51.518;9.864;2022-12-18T05:35:59;27.13;;;11.88;;
20709;SDS011;10516;51.518;9.864;2022-12-18T05:38:26;28.55;;;13.40;;
20709;SDS011;10516;51.518;9.864;2022-12-18T05:40:52;23.73;;;12.10;;
20709;SDS011;10516;51.518;9.864;2022-12-18T05:43:19;22.10;;;12.02;;
20709;SDS011;10516;51.518;9.864;2022-12-18T05:45:46;28.48;;;13.90;;
20709;SDS011;10516;51.518;9.864;2022-12-18T05:48:12;28.67;;;13.73;;
20709;SDS011;10516;51.518;9.864;2022-12-18T05:50:38;31.35;;;14.35;;
20709;SDS011;10516;51.518;9.864;2022-12-18T05:53:05;26.08;;;14.95;;
20709;SDS011;10516;51.518;9.864;2022-12-18T05:55:34;28.40;;;17.05;;
20709;SDS011;10516;51.518;9.864;2022-12-18T05:58:01;30.13;;;18.42;;
20709;SDS011;10516;51.518;9.864;2022-12-18T06:00:27;33.28;;;22.38;;
20709;SDS011;10516;51.518;9.864;2022-12-18T06:02:52;39.30;;;23.80;;
20709;SDS011;10516;51.518;9.864;2022-12-18T06:05:18;34.53;;;20.60;;
20709;SDS011;10516;51.518;9.864;2022-12-18T06:07:43;31.83;;;21.45;;
20709;SDS011;10516;51.518;9.864;2022-12-18T06:10:08;36.63;;;22.35;;
20709;SDS011;10516;51.518;9.864;2022-12-18T06:12:34;37.97;;;23.30;;
20709;SDS011;10516;51.518;9.864;2022-12-18T06:14:59;40.50;;;26.02;;
20709;SDS011;10516;51.518;9.864;2022-12-18T06:17:29;38.90;;;24.30;;
20709;SDS011;10516;51.518;9.864;2022-12-18T06:19:55;44.15;;;26.70;;
20709;SDS011;10516;51.518;9.864;2022-12-18T06:22:20;40.10;;;23.50;;
20709;SDS011;10516;51.518;9.864;2022-12-18T06:24:45;38.38;;;21.08;;
20709;SDS011;10516;51.518;9.864;2022-12-18T06:27:11;34.88;;;22.60;;
20709;SDS011;10516;51.518;9.864;2022-12-18T06:29:36;37.30;;;20.60;;
20709;SDS011;10516;51.518;9.864;2022-12-18T06:32:02;32.67;;;19.73;;
20709;SDS011;10516;51.518;9.864;2022-12-18T06:34:27;33.72;;;19.27;;
20709;SDS011;10516;51.518;9.864;2022-12-18T06:36:55;34.83;;;18.90;;
20709;SDS011;10516;51.518;9.864;2022-12-18T06:39:21;34.28;;;18.27;;
20709;SDS011;10516;51.518;9.864;2022-12-18T06:41:46;30.35;;;16.85;;
20709;SDS011;10516;51.518;9.864;2022-12-18T06:44:11;30.90;;;16.35;;
20709;SDS011;10516;51.518;9.864;2022-12-18T06:46:37;31.77;;;15.90;;
20709;SDS011;10516;51.518;9.864;2022-12-18T06:49:03;24.63;;;13.30;;
20709;SDS011;10516;51.518;9.864;2022-12-18T06:51:28;23.75;;;14.15;;
20709;SDS011;10516;51.518;9.864;2022-12-18T06:53:53;27.92;;;14.20;;
20709;SDS011;10516;51.518;9.864;2022-12-18T06:56:19;28.95;;;14.32;;
20709;SDS011;10516;51.518;9.864;2022-12-18T06:58:44;32.63;;;13.50;;
20709;SDS011;10516;51.518;9.864;2022-12-18T07:01:10;30.58;;;14.23;;
20709;SDS011;10516;51.518;9.864;2022-12-18T07:03:37;27.75;;;13.13;;
20709;SDS011;10516;51.518;9.864;2022-12-18T07:06:04;27.48;;;13.40;;
20709;SDS011;10516;51.518;9.864;2022-12-18T07:08:30;21.20;;;12.20;;
20709;SDS011;10516;51.518;9.864;2022-12-18T07:10:56;20.73;;;11.77;;
20709;SDS011;10516;51.518;9.864;2022-12-18T07:13:22;25.20;;;12.55;;
20709;SDS011;10516;51.518;9.864;2022-12-18T07:15:47;27.92;;;12.68;;
20709;SDS011;10516;51.518;9.864;2022-12-18T07:18:13;21.92;;;11.27;;
20709;SDS011;10516;51.518;9.864;2022-12-18T07:20:38;20.27;;;11.60;;
20709;SDS011;10516;51.518;9.864;2022-12-18T07:23:04;25.90;;;11.77;;
20709;SDS011;10516;51.518;9.864;2022-12-18T07:25:30;26.13;;;11.50;;
20709;SDS011;10516;51.518;9.864;2022-12-18T07:27:59;25.33;;;11.45;;
20709;SDS011;10516;51.518;9.864;2022-12-18T07:30:25;23.85;;;11.57;;
20709;SDS011;10516;51.518;9.864;2022-12-18T07:32:50;33.58;;;13.98;;
20709;SDS011;10516;51.518;9.864;2022-12-18T07:35:16;27.13;;;15.48;;
20709;SDS011;10516;51.518;9.864;2022-12-18T07:37:41;27.70;;;14.52;;
20709;SDS011;10516;51.518;9.864;2022-12-18T07:40:07;35.30;;;15.63;;
20709;SDS011;10516;51.518;9.864;2022-12-18T07:42:33;39.95;;;17.05;;
20709;SDS011;10516;51.518;9.864;2022-12-18T07:45:00;28.25;;;15.23;;
20709;SDS011;10516;51.518;9.864;2022-12-18T07:47:26;23.77;;;13.95;;
20709;SDS011;10516;51.518;9.864;2022-12-18T07:49:58;32.08;;;15.43;;
20709;SDS011;10516;51.518;9.864;2022-12-18T07:52:23;25.40;;;14.30;;
20709;SDS011;10516;51.518;9.864;2022-12-18T07:54:48;29.88;;;14.38;;
20709;SDS011;10516;51.518;9.864;2022-12-18T07:57:15;29.23;;;14.15;;
20709;SDS011;10516;51.518;9.864;2022-12-18T07:59:44;31.15;;;16.00;;
20709;SDS011;10516;51.518;9.864;2022-12-18T08:02:09;25.63;;;12.73;;
20709;SDS011;10516;51.518;9.864;2022-12-18T08:04:35;30.98;;;15.48;;
20709;SDS011;10516;51.518;9.864;2022-12-18T08:07:00;31.67;;;16.13;;
20709;SDS011;10516;51.518;9.864;2022-12-18T08:09:25;30.23;;;16.35;;
20709;SDS011;10516;51.518;9.864;2022-12-18T08:11:51;36.28;;;15.35;;
20709;SDS011;10516;51.518;9.864;2022-12-18T08:14:16;30.45;;;15.75;;
20709;SDS011;10516;51.518;9.864;2022-12-18T08:16:42;27.30;;;14.38;;
20709;SDS011;10516;51.518;9.864;2022-12-18T08:19:07;24.70;;;12.45;;
20709;SDS011;10516;51.518;9.864;2022-12-18T08:21:35;32.53;;;13.75;;
20709;SDS011;10516;51.518;9.864;2022-12-18T08:24:01;28.52;;;12.85;;
20709;SDS011;10516;51.518;9.864;2022-12-18T08:26:28;23.00;;;13.90;;
20709;SDS011;10516;51.518;9.864;2022-12-18T08:28:55;32.35;;;13.48;;
20709;SDS011;10516;51.518;9.864;2022-12-18T08:31:22;26.30;;;12.55;;
20709;SDS011;10516;51.518;9.864;2022-12-18T08:33:48;26.48;;;12.68;;
20709;SDS011;10516;51.518;9.864;2022-12-18T08:36:15;24.52;;;12.88;;
20709;SDS011;10516;51.518;9.864;2022-12-18T08:38:41;29.58;;;14.82;;
20709;SDS011;10516;51.518;9.864;2022-12-18T08:41:07;22.83;;;12.90;;
20709;SDS011;10516;51.518;9.864;2022-12-18T08:43:34;27.73;;;14.13;;
20709;SDS011;10516;51.518;9.864;2022-12-18T08:46:19;26.55;;;12.63;;
20709;SDS011;10516;51.518;9.864;2022-12-18T08:48:46;31.80;;;12.45;;
20709;SDS011;10516;51.518;9.864;2022-12-18T08:51:12;20.92;;;11.45;;
20709;SDS011;10516;51.518;9.864;2022-12-18T08:53:40;26.70;;;10.93;;
20709;SDS011;10516;51.518;9.864;2022-12-18T08:56:06;25.70;;;9.52;;
20709;SDS011;10516;51.518;9.864;2022-12-18T08:58:32;21.73;;;9.73;;
20709;SDS011;10516;51.518;9.864;2022-12-18T09:01:01;19.70;;;10.40;;
20709;SDS011;10516;51.518;9.864;2022-12-18T09:03:31;19.25;;;10.30;;
20709;SDS011;10516;51.518;9.864;2022-12-18T09:05:57;27.75;;;11.05;;
20709;SDS011;10516;51.518;9.864;2022-12-18T09:08:23;18.88;;;9.05;;
20709;SDS011;10516;51.518;9.864;2022-12-18T09:10:49;17.25;;;9.55;;
20709;SDS011;10516;51.518;9.864;2022-12-18T09:13:15;20.50;;;9.05;;
20709;SDS011;10516;51.518;9.864;2022-12-18T09:15:45;16.15;;;9.15;;
20709;SDS011;10516;51.518;9.864;2022-12-18T09:18:13;23.17;;;9.68;;
20709;SDS011;10516;51.518;9.864;2022-12-18T09:20:40;22.90;;;11.45;;
20709;SDS011;10516;51.518;9.864;2022-12-18T09:23:06;16.08;;;9.32;;
20709;SDS011;10516;51.518;9.864;2022-12-18T09:25:32;16.45;;;9.48;;
20709;SDS011;10516;51.518;9.864;2022-12-18T09:28:00;21.27;;;10.95;;
20709;SDS011;10516;51.518;9.864;2022-12-18T09:30:44;19.83;;;10.77;;
20709;SDS011;10516;51.518;9.864;2022-12-18T09:33:13;18.73;;;9.52;;
20709;SDS011;10516;51.518;9.864;2022-12-18T09:35:40;18.98;;;9.77;;
20709;SDS011;10516;51.518;9.864;2022-12-18T09:38:07;18.45;;;9.82;;
20709;SDS011;10516;51.518;9.864;2022-12-18T09:40:39;17.40;;;9.60;;
20709;SDS011;10516;51.518;9.864;2022-12-18T09:43:29;22.85;;;9.95;;
20709;SDS011;10516;51.518;9.864;2022-12-18T09:46:10;17.38;;;9.88;;
20709;SDS011;10516;51.518;9.864;2022-12-18T09:48:50;24.20;;;9.27;;
20709;SDS011;10516;51.518;9.864;2022-12-18T09:51:20;19.45;;;8.63;;
20709;SDS011;10516;51.518;9.864;2022-12-18T09:53:53;16.40;;;8.82;;
20709;SDS011;10516;51.518;9.864;2022-12-18T09:56:23;26.33;;;10.63;;
20709;SDS011;10516;51.518;9.864;2022-12-18T09:58:55;21.60;;;10.90;;
20709;SDS011;10516;51.518;9.864;2022-12-18T10:01:24;18.42;;;9.00;;
20709;SDS011;10516;51.518;9.864;2022-12-18T10:03:51;19.92;;;10.32;;
20709;SDS011;10516;51.518;9.864;2022-12-18T10:06:21;17.10;;;9.48;;
20709;SDS011;10516;51.518;9.864;2022-12-18T10:14:41;20.05;;;11.80;;
20709;SDS011;10516;51.518;9.864;2022-12-18T10:17:22;19.35;;;9.55;;
20709;SDS011;10516;51.518;9.864;2022-12-18T10:19:50;23.60;;;10.65;;
20709;SDS011;10516;51.518;9.864;2022-12-18T10:25:31;19.65;;;8.93;;
20709;SDS011;10516;51.518;9.864;2022-12-18T10:28:15;20.77;;;9.50;;
20709;SDS011;10516;51.518;9.864;2022-12-18T10:30:42;16.02;;;8.48;;
20709;SDS011;10516;51.518;9.864;2022-12-18T10:33:12;18.77;;;9.27;;
20709;SDS011;10516;51.518;9.864;2022-12-18T10:35:41;17.58;;;8.07;;
20709;SDS011;10516;51.518;9.864;2022-12-18T10:38:20;16.98;;;7.90;;
20709;SDS011;10516;51.518;9.864;2022-12-18T10:43:13;14.73;;;7.50;;
20709;SDS011;10516;51.518;9.864;2022-12-18T10:45:41;11.43;;;6.32;;
20709;SDS011;10516;51.518;9.864;2022-12-18T10:48:19;20.67;;;9.20;;
20709;SDS011;10516;51.518;9.864;2022-12-18T10:50:47;16.50;;;8.40;;
20709;SDS011;10516;51.518;9.864;2022-12-18T10:53:19;14.63;;;8.52;;
20709;SDS011;10516;51.518;9.864;2022-12-18T10:55:49;15.60;;;8.67;;
20709;SDS011;10516;51.518;9.864;2022-12-18T10:58:26;14.80;;;8.85;;
20709;SDS011;10516;51.518;9.864;2022-12-18T11:03:34;19.20;;;9.10;;
20709;SDS011;10516;51.518;9.864;2022-12-18T11:06:14;13.38;;;7.53;;
20709;SDS011;10516;51.518;9.864;2022-12-18T11:08:46;15.23;;;8.23;;
20709;SDS011;10516;51.518;9.864;2022-12-18T11:11:24;15.45;;;8.40;;
20709;SDS011;10516;51.518;9.864;2022-12-18T11:16:29;12.30;;;6.65;;
20709;SDS011;10516;51.518;9.864;2022-12-18T11:19:17;15.20;;;7.63;;
20709;SDS011;10516;51.518;9.864;2022-12-18T11:21:47;16.00;;;8.23;;
20709;SDS011;10516;51.518;9.864;2022-12-18T11:24:19;14.77;;;8.00;;
20709;SDS011;10516;51.518;9.864;2022-12-18T11:27:05;11.57;;;7.40;;
20709;SDS011;10516;51.518;9.864;2022-12-18T11:29:42;15.48;;;7.85;;
20709;SDS011;10516;51.518;9.864;2022-12-18T11:34:41;17.58;;;9.02;;
20709;SDS011;10516;51.518;9.864;2022-12-18T11:37:11;18.67;;;9.07;;
20709;SDS011;10516;51.518;9.864;2022-12-18T11:39:46;19.58;;;8.73;;
20709;SDS011;10516;51.518;9.864;2022-12-18T11:42:25;18.60;;;9.95;;
20709;SDS011;10516;51.518;9.864;2022-12-18T11:47:45;23.20;;;9.70;;
20709;SDS011;10516;51.518;9.864;2022-12-18T11:50:32;21.10;;;9.07;;
20709;SDS011;10516;51.518;9.864;2022-12-18T11:53:01;17.27;;;9.10;;
20709;SDS011;10516;51.518;9.864;2022-12-18T11:55:35;23.25;;;10.65;;
20709;SDS011;10516;51.518;9.864;2022-12-18T12:01:33;27.90;;;12.57;;
20709;SDS011;10516;51.518;9.864;2022-12-18T12:06:55;24.08;;;12.77;;
20709;SDS011;10516;51.518;9.864;2022-12-18T12:09:26;21.75;;;10.65;;
20709;SDS011;10516;51.518;9.864;2022-12-18T12:15:00;21.35;;;10.32;;
20709;SDS011;10516;51.518;9.864;2022-12-18T12:17:34;18.27;;;10.80;;
20709;SDS011;10516;51.518;9.864;2022-12-18T12:31:00;16.77;;;10.38;;
20709;SDS011;10516;51.518;9.864;2022-12-18T12:39:06;21.63;;;11.85;;
20709;SDS011;10516;51.518;9.864;2022-12-18T12:41:37;19.10;;;11.50;;
20709;SDS011;10516;51.518;9.864;2022-12-18T12:44:33;108.93;;;20.52;;
20709;SDS011;10516;51.518;9.864;2022-12-18T12:47:16;61.40;;;16.02;;
20709;SDS011;10516;51.518;9.864;2022-12-18T12:49:46;41.95;;;13.98;;
20709;SDS011;10516;51.518;9.864;2022-12-18T12:52:58;24.33;;;12.18;;
20709;SDS011;10516;51.518;9.864;2022-12-18T12:55:05;19.95;;;12.00;;
20709;SDS011;10516;51.518;9.864;2022-12-18T12:57:38;34.35;;;14.27;;
20709;SDS011;10516;51.518;9.864;2022-12-18T13:00:10;22.08;;;13.60;;
20709;SDS011;10516;51.518;9.864;2022-12-18T13:08:27;31.10;;;12.63;;
20709;SDS011;10516;51.518;9.864;2022-12-18T13:10:54;24.02;;;12.02;;
20709;SDS011;10516;51.518;9.864;2022-12-18T13:13:54;26.75;;;12.23;;
20709;SDS011;10516;51.518;9.864;2022-12-18T13:16:22;19.20;;;11.65;;
20709;SDS011;10516;51.518;9.864;2022-12-18T13:18:53;22.40;;;11.50;;
20709;SDS011;10516;51.518;9.864;2022-12-18T13:21:24;22.73;;;11.90;;
20709;SDS011;10516;51.518;9.864;2022-12-18T13:23:53;20.98;;;12.18;;
20709;SDS011;10516;51.518;9.864;2022-12-18T13:36:42;19.20;;;10.63;;
20709;SDS011;10516;51.518;9.864;2022-12-18T13:41:43;18.40;;;11.15;;
20709;SDS011;10516;51.518;9.864;2022-12-18T13:44:17;18.17;;;10.73;;
20709;SDS011;10516;51.518;9.864;2022-12-18T13:46:50;24.73;;;9.68;;
20709;SDS011;10516;51.518;9.864;2022-12-18T13:49:20;18.33;;;10.82;;
20709;SDS011;10516;51.518;9.864;2022-12-18T13:51:55;20.23;;;13.55;;
20709;SDS011;10516;51.518;9.864;2022-12-18T13:56:49;16.88;;;10.52;;
20709;SDS011;10516;51.518;9.864;2022-12-18T14:06:56;25.23;;;12.90;;
20709;SDS011;10516;51.518;9.864;2022-12-18T14:09:28;21.90;;;11.77;;
20709;SDS011;10516;51.518;9.864;2022-12-18T14:11:55;18.40;;;9.73;;
20709;SDS011;10516;51.518;9.864;2022-12-18T14:14:42;18.23;;;11.30;;
20709;SDS011;10516;51.518;9.864;2022-12-18T14:17:10;17.38;;;10.02;;
20709;SDS011;10516;51.518;9.864;2022-12-18T14:19:40;18.40;;;10.65;;
20709;SDS011;10516;51.518;9.864;2022-12-18T14:22:12;17.10;;;10.70;;
20709;SDS011;10516;51.518;9.864;2022-12-18T14:24:41;20.00;;;11.48;;
20709;SDS011;10516;51.518;9.864;2022-12-18T14:27:41;21.52;;;12.00;;
20709;SDS011;10516;51.518;9.864;2022-12-18T14:30:15;19.33;;;9.32;;
20709;SDS011;10516;51.518;9.864;2022-12-18T14:35:24;14.57;;;9.13;;
20709;SDS011;10516;51.518;9.864;2022-12-18T14:37:49;33.35;;;23.35;;
20709;SDS011;10516;51.518;9.864;2022-12-18T14:40:15;22.45;;;10.95;;
20709;SDS011;10516;51.518;9.864;2022-12-18T14:42:40;20.10;;;10.80;;
20709;SDS011;10516;51.518;9.864;2022-12-18T14:48:06;25.50;;;13.25;;
20709;SDS011;10516;51.518;9.864;2022-12-18T14:50:44;23.42;;;12.15;;
20709;SDS011;10516;51.518;9.864;2022-12-18T14:53:20;17.77;;;10.98;;
20709;SDS011;10516;51.518;9.864;2022-12-18T14:55:48;18.25;;;10.30;;
20709;SDS011;10516;51.518;9.864;2022-12-18T14:58:15;22.05;;;11.10;;
20709;SDS011;10516;51.518;9.864;2022-12-18T15:00:42;17.92;;;11.57;;
20709;SDS011;10516;51.518;9.864;2022-12-18T15:03:08;19.10;;;10.35;;
20709;SDS011;10516;51.518;9.864;2022-12-18T15:05:34;22.05;;;11.90;;
20709;SDS011;10516;51.518;9.864;2022-12-18T15:08:00;19.95;;;11.07;;
20709;SDS011;10516;51.518;9.864;2022-12-18T15:10:33;24.05;;;12.98;;
20709;SDS011;10516;51.518;9.864;2022-12-18T15:18:14;23.70;;;12.82;;
20709;SDS011;10516;51.518;9.864;2022-12-18T15:23:16;21.83;;;11.75;;
20709;SDS011;10516;51.518;9.864;2022-12-18T15:25:45;42.72;;;22.15;;
20709;SDS011;10516;51.518;9.864;2022-12-18T15:28:17;19.67;;;10.95;;
20709;SDS011;10516;51.518;9.864;2022-12-18T15:33:38;23.65;;;12.00;;
20709;SDS011;10516;51.518;9.864;2022-12-18T15:36:08;25.10;;;13.63;;
20709;SDS011;10516;51.518;9.864;2022-12-18T15:38:35;20.50;;;11.70;;
20709;SDS011;10516;51.518;9.864;2022-12-18T15:41:01;22.65;;;12.98;;
20709;SDS011;10516;51.518;9.864;2022-12-18T15:43:28;20.80;;;12.43;;
20709;SDS011;10516;51.518;9.864;2022-12-18T15:46:04;25.52;;;14.45;;
20709;SDS011;10516;51.518;9.864;2022-12-18T15:48:49;23.10;;;13.60;;
20709;SDS011;10516;51.518;9.864;2022-12-18T15:51:20;23.30;;;12.55;;
20709;SDS011;10516;51.518;9.864;2022-12-18T15:53:49;24.95;;;12.98;;
20709;SDS011;10516;51.518;9.864;2022-12-18T15:56:18;22.30;;;13.05;;
20709;SDS011;10516;51.518;9.864;2022-12-18T15:59:04;23.67;;;14.50;;
20709;SDS011;10516;51.518;9.864;2022-12-18T16:01:39;24.58;;;13.13;;
20709;SDS011;10516;51.518;9.864;2022-12-18T16:04:06;23.90;;;12.57;;
20709;SDS011;10516;51.518;9.864;2022-12-18T16:06:31;23.52;;;12.00;;
20709;SDS011;10516;51.518;9.864;2022-12-18T16:08:57;24.65;;;14.57;;
20709;SDS011;10516;51.518;9.864;2022-12-18T16:11:26;23.50;;;13.60;;
20709;SDS011;10516;51.518;9.864;2022-12-18T16:16:44;25.10;;;13.60;;
20709;SDS011;10516;51.518;9.864;2022-12-18T16:19:10;24.17;;;13.75;;
20709;SDS011;10516;51.518;9.864;2022-12-18T16:21:35;29.52;;;12.40;;
20709;SDS011;10516;51.518;9.864;2022-12-18T16:24:01;25.42;;;13.00;;
20709;SDS011;10516;51.518;9.864;2022-12-18T16:26:27;25.80;;;16.13;;
20709;SDS011;10516;51.518;9.864;2022-12-18T16:28:52;26.55;;;12.52;;
20709;SDS011;10516;51.518;9.864;2022-12-18T16:31:18;25.67;;;12.57;;
20709;SDS011;10516;51.518;9.864;2022-12-18T16:33:43;23.58;;;13.15;;
20709;SDS011;10516;51.518;9.864;2022-12-18T16:36:09;24.65;;;12.43;;
20709;SDS011;10516;51.518;9.864;2022-12-18T16:38:34;19.83;;;11.77;;
20709;SDS011;10516;51.518;9.864;2022-12-18T16:40:59;23.70;;;12.30;;
20709;SDS011;10516;51.518;9.864;2022-12-18T16:43:43;19.33;;;11.10;;
20709;SDS011;10516;51.518;9.864;2022-12-18T16:46:09;20.90;;;12.70;;
20709;SDS011;10516;51.518;9.864;2022-12-18T16:48:34;23.33;;;13.25;;